Gibson, Australia
Current Conditions -  °F | °C
As of 4:00 PM on Friday 31 Oct 2014 (Local Time) from YESP Reporting Station
Broken Clouds Broken Clouds  
Wind Chill: 63°   Ceiling: 4200
Heat Index: 63°   Visibility: 6mi
Dew Point: 46°   Wind: 17mph
Humidity: 55%   Direction: 190°S
Pressure: 30.06"   Gusts: NA
Location:  33.64°S, 121.81°E
Report Text: YESP 310800Z AUTO 19015KT 9999 // BKN042 17/08 Q1018
Loading
Personal Weather Stations






























Interactive Weather Map
Tropical Storm Tracking
New forecast layout! Learn more

10-Day Weather Forecast

Advertisements
Track Severe Weather on mobile